createdAt,value
2018-11-21T00:00:57.409Z,15.60
2018-11-21T00:01:57.371Z,15.70
2018-11-21T00:02:57.324Z,14.50
2018-11-21T00:03:57.303Z,15.50
2018-11-21T00:04:57.231Z,15.60
2018-11-21T00:05:57.191Z,16.00
2018-11-21T00:07:06.396Z,15.70
2018-11-21T00:07:57.100Z,15.30
2018-11-21T00:08:57.110Z,15.40
2018-11-21T00:09:57.013Z,15.00
2018-11-21T00:10:56.965Z,15.60
2018-11-21T00:11:56.945Z,15.80
2018-11-21T00:12:56.904Z,15.30
2018-11-21T00:13:56.845Z,16.00
2018-11-21T00:14:56.810Z,15.20
2018-11-21T00:15:56.787Z,15.40
2018-11-21T00:16:56.705Z,15.20
2018-11-21T00:17:56.696Z,15.30
2018-11-21T00:19:00.641Z,15.30
2018-11-21T00:19:56.572Z,15.10
2018-11-21T00:20:56.579Z,15.50
2018-11-21T00:21:56.527Z,15.30
2018-11-21T00:22:56.449Z,15.70
2018-11-21T00:23:56.415Z,15.50
2018-11-21T00:24:56.349Z,15.20
2018-11-21T00:25:56.307Z,15.40
2018-11-21T00:26:56.287Z,15.50
2018-11-21T00:27:56.212Z,15.40
2018-11-21T00:28:56.166Z,15.80
2018-11-21T00:29:56.147Z,15.20
2018-11-21T00:30:56.076Z,15.70
2018-11-21T00:31:56.079Z,15.90
2018-11-21T00:32:56.001Z,15.60
2018-11-21T00:33:55.929Z,15.30
2018-11-21T00:34:55.890Z,15.40
2018-11-21T00:35:55.904Z,15.70
2018-11-21T00:36:55.815Z,16.10
2018-11-21T00:37:55.804Z,16.00
2018-11-21T00:38:55.729Z,15.90
2018-11-21T00:39:55.675Z,15.30
2018-11-21T00:40:55.628Z,16.10
2018-11-21T00:41:55.578Z,15.70
2018-11-21T00:42:55.561Z,16.20
2018-11-21T00:43:55.507Z,16.10
2018-11-21T00:44:55.443Z,16.10
2018-11-21T00:45:55.420Z,15.90
2018-11-21T00:46:55.360Z,16.40
2018-11-21T00:47:55.298Z,16.30
2018-11-21T00:48:55.314Z,16.30
2018-11-21T00:49:55.235Z,16.10
2018-11-21T00:50:55.178Z,16.50
2018-11-21T00:51:55.149Z,16.80
2018-11-21T00:52:55.088Z,16.10
2018-11-21T00:53:55.068Z,15.90
2018-11-21T00:54:54.997Z,16.20
2018-11-21T00:55:54.952Z,16.20
2018-11-21T00:56:54.918Z,16.00
2018-11-21T00:57:54.854Z,16.20
2018-11-21T00:58:54.837Z,16.20
2018-11-21T00:59:54.785Z,15.80
2018-11-21T01:00:54.720Z,15.80
2018-11-21T01:01:54.693Z,16.60
2018-11-21T01:02:54.653Z,17.30
2018-11-21T01:03:54.589Z,16.80
2018-11-21T01:04:54.538Z,16.00
2018-11-21T01:05:54.516Z,16.00
2018-11-21T01:06:54.485Z,16.60
2018-11-21T01:07:54.412Z,16.50
2018-11-21T01:08:54.358Z,16.80
2018-11-21T01:09:54.312Z,16.90
2018-11-21T01:10:54.307Z,16.70
2018-11-21T01:11:54.220Z,17.20
2018-11-21T01:12:54.172Z,16.90
2018-11-21T01:13:54.126Z,17.40
2018-11-21T01:14:54.114Z,16.90
2018-11-21T01:15:54.056Z,17.00
2018-11-21T01:16:54.002Z,16.20
2018-11-21T01:17:53.953Z,16.70
2018-11-21T01:18:53.921Z,16.90
2018-11-21T01:19:53.891Z,16.60
2018-11-21T01:20:53.809Z,16.60
2018-11-21T01:21:53.770Z,16.10
2018-11-21T01:22:53.757Z,16.90
2018-11-21T01:23:53.679Z,16.60
2018-11-21T01:24:53.626Z,16.90
2018-11-21T01:25:53.606Z,16.80
2018-11-21T01:26:53.551Z,16.30
2018-11-21T01:27:53.510Z,16.60
2018-11-21T01:28:53.468Z,17.40
2018-11-21T01:29:53.449Z,16.80
2018-11-21T01:30:53.373Z,17.00
2018-11-21T01:31:53.330Z,17.70
2018-11-21T01:32:53.279Z,16.90
2018-11-21T01:33:53.257Z,18.20
2018-11-21T01:34:53.192Z,18.20
2018-11-21T01:35:53.181Z,18.40
2018-11-21T01:36:53.116Z,17.10
2018-11-21T01:37:53.052Z,17.50
2018-11-21T01:38:53.020Z,18.10
2018-11-21T01:39:52.976Z,18.20
2018-11-21T01:40:52.956Z,18.30
2018-11-21T01:41:52.864Z,18.50
2018-11-21T01:42:52.827Z,18.00
2018-11-21T01:43:52.780Z,17.90
2018-11-21T01:44:52.774Z,18.10
2018-11-21T01:45:52.703Z,18.60
2018-11-21T01:46:52.654Z,18.20
2018-11-21T01:47:52.595Z,17.70
2018-11-21T01:48:52.578Z,18.40
2018-11-21T01:49:52.523Z,17.90
2018-11-21T01:50:52.473Z,18.70
2018-11-21T01:51:52.416Z,18.70
2018-11-21T01:52:52.412Z,18.90
2018-11-21T01:53:52.323Z,18.90
2018-11-21T01:54:52.284Z,18.70
2018-11-21T01:55:52.232Z,19.00
2018-11-21T01:56:52.204Z,18.00
2018-11-21T01:57:52.137Z,17.90
2018-11-21T01:58:52.146Z,18.60
2018-11-21T01:59:52.107Z,17.60
2018-11-21T02:00:52.018Z,17.40
2018-11-21T02:01:51.995Z,17.50
2018-11-21T02:02:51.924Z,18.10
2018-11-21T02:03:51.864Z,18.10
2018-11-21T02:04:51.817Z,18.10
2018-11-21T02:05:51.793Z,18.20
2018-11-21T02:06:51.726Z,18.30
2018-11-21T02:07:51.690Z,19.60
2018-11-21T02:08:51.643Z,19.00
2018-11-21T02:09:51.584Z,18.20
2018-11-21T02:10:51.567Z,18.10
2018-11-21T02:11:51.528Z,18.80
2018-11-21T02:12:51.460Z,19.00
2018-11-21T02:13:51.416Z,19.20
2018-11-21T02:14:51.370Z,18.50
2018-11-21T02:15:51.336Z,19.00
2018-11-21T02:16:51.295Z,19.40
2018-11-21T02:17:51.228Z,18.30
2018-11-21T02:18:51.186Z,18.50
2018-11-21T02:19:51.132Z,18.40
2018-11-21T02:20:51.094Z,18.10
2018-11-21T02:21:51.067Z,18.60
2018-11-21T02:22:51.019Z,18.80
2018-11-21T02:23:50.957Z,19.10
2018-11-21T02:24:50.911Z,18.70
2018-11-21T02:25:50.860Z,18.40
2018-11-21T02:26:50.817Z,18.80
2018-11-21T02:27:50.799Z,19.20
2018-11-21T02:28:50.731Z,19.40
2018-11-21T02:29:50.684Z,18.60
2018-11-21T02:30:50.639Z,19.70
2018-11-21T02:31:50.616Z,19.30
2018-11-21T02:32:50.559Z,20.10
2018-11-21T02:33:50.499Z,19.50
2018-11-21T02:34:50.481Z,18.90
2018-11-21T02:35:50.412Z,19.40
2018-11-21T02:36:50.368Z,19.00
2018-11-21T02:37:50.329Z,18.90
2018-11-21T02:38:50.278Z,19.10
2018-11-21T02:39:50.225Z,19.80
2018-11-21T02:40:50.202Z,20.40
2018-11-21T02:41:50.140Z,21.10
2018-11-21T02:42:50.097Z,20.60
2018-11-21T02:43:50.067Z,20.40
2018-11-21T02:44:49.994Z,20.50
2018-11-21T02:45:49.952Z,19.80
2018-11-21T02:46:49.905Z,19.10
2018-11-21T02:47:49.893Z,20.30
2018-11-21T02:48:49.852Z,19.30
2018-11-21T02:49:49.773Z,19.70
2018-11-21T02:50:49.733Z,19.80
2018-11-21T02:51:49.681Z,21.50
2018-11-21T02:52:49.629Z,21.30
2018-11-21T02:53:49.610Z,19.70
2018-11-21T02:54:49.538Z,20.20
2018-11-21T02:55:49.499Z,20.00
2018-11-21T02:56:49.455Z,20.90
2018-11-21T02:57:49.410Z,21.20
2018-11-21T02:58:49.379Z,21.50
2018-11-21T02:59:49.318Z,22.20
2018-11-21T03:00:49.270Z,21.30
2018-11-21T03:01:49.225Z,22.30
2018-11-21T03:02:49.179Z,21.30
2018-11-21T03:03:49.154Z,22.00
2018-11-21T03:04:49.082Z,22.10
2018-11-21T03:05:49.035Z,21.90
2018-11-21T03:06:48.992Z,22.60
2018-11-21T03:07:48.952Z,22.10
2018-11-21T03:08:48.906Z,22.30
2018-11-21T03:09:48.879Z,22.60
2018-11-21T03:10:48.815Z,22.00
2018-11-21T03:11:48.771Z,23.10
2018-11-21T03:12:48.724Z,22.40
2018-11-21T03:13:48.676Z,22.70
2018-11-21T03:14:48.651Z,22.40
2018-11-21T03:15:48.575Z,22.50
2018-11-21T03:16:48.531Z,22.30
2018-11-21T03:17:48.484Z,22.30
2018-11-21T03:18:48.438Z,22.70
2018-11-21T03:19:48.420Z,23.30
2018-11-21T03:20:48.351Z,22.70
2018-11-21T03:21:48.306Z,22.90
2018-11-21T03:22:48.260Z,22.80
2018-11-21T03:23:48.208Z,24.00
2018-11-21T03:24:48.190Z,23.80
2018-11-21T03:25:48.120Z,22.70
2018-11-21T03:26:48.073Z,23.80
2018-11-21T03:27:48.029Z,23.60
2018-11-21T03:28:47.984Z,23.30
2018-11-21T03:29:47.926Z,22.10
2018-11-21T03:30:47.921Z,22.70
2018-11-21T03:31:47.844Z,22.90
2018-11-21T03:32:47.800Z,24.10
2018-11-21T03:33:47.758Z,22.90
2018-11-21T03:34:47.710Z,25.20
2018-11-21T03:35:47.683Z,22.90
2018-11-21T03:36:47.613Z,24.00
2018-11-21T03:37:47.568Z,23.00
2018-11-21T03:38:47.523Z,24.70
2018-11-21T03:39:47.483Z,24.40
2018-11-21T03:40:47.453Z,22.20
2018-11-21T03:41:47.384Z,22.30
2018-11-21T03:42:47.343Z,23.50
2018-11-21T03:43:47.287Z,24.50
2018-11-21T03:44:47.241Z,24.00
2018-11-21T03:45:47.223Z,24.70
2018-11-21T03:46:47.173Z,24.30
2018-11-21T03:47:47.104Z,23.60
2018-11-21T03:48:47.052Z,23.30
2018-11-21T03:49:47.007Z,23.70
2018-11-21T03:50:46.986Z,25.30
2018-11-21T03:51:46.951Z,24.50
2018-11-21T03:52:46.883Z,23.60
2018-11-21T03:53:46.831Z,23.70
2018-11-21T03:54:46.785Z,23.70
2018-11-21T03:55:46.731Z,24.40
2018-11-21T03:56:46.707Z,24.10
2018-11-21T03:57:46.640Z,24.60
2018-11-21T03:58:46.617Z,24.90
2018-11-21T03:59:46.552Z,24.90
2018-11-21T04:00:46.511Z,25.00
2018-11-21T04:01:46.478Z,24.70
2018-11-21T04:02:46.412Z,24.60
2018-11-21T04:03:46.376Z,24.90
2018-11-21T04:04:46.322Z,23.60
2018-11-21T04:05:46.280Z,24.40
2018-11-21T04:06:46.247Z,24.70
2018-11-21T04:07:46.179Z,23.90
2018-11-21T04:08:46.129Z,24.90
2018-11-21T04:09:46.088Z,25.70
2018-11-21T04:10:46.036Z,23.90
2018-11-21T04:11:46.016Z,23.90
2018-11-21T04:12:45.953Z,24.60
2018-11-21T04:13:45.931Z,24.80
2018-11-21T04:14:45.861Z,24.20
2018-11-21T04:15:45.807Z,26.10
2018-11-21T04:16:45.764Z,25.00
2018-11-21T04:17:45.713Z,26.20
2018-11-21T04:18:45.671Z,25.50
2018-11-21T04:19:45.650Z,25.70
2018-11-21T04:20:45.568Z,25.30
2018-11-21T04:21:45.522Z,25.30
2018-11-21T04:22:45.479Z,26.60
2018-11-21T04:23:45.438Z,24.90
2018-11-21T04:24:45.419Z,25.50
2018-11-21T04:25:45.377Z,25.90
2018-11-21T04:26:45.298Z,26.20
2018-11-21T04:27:45.243Z,27.00
2018-11-21T04:28:45.200Z,26.10
2018-11-21T04:29:45.151Z,25.80
2018-11-21T04:30:45.130Z,26.10
2018-11-21T04:31:45.071Z,26.20
2018-11-21T04:32:45.024Z,25.80
2018-11-21T04:33:44.965Z,27.50
2018-11-21T04:34:44.920Z,27.70
2018-11-21T04:35:44.907Z,27.40
2018-11-21T04:36:44.836Z,27.70
2018-11-21T04:37:44.791Z,27.40
2018-11-21T04:38:44.742Z,26.40
2018-11-21T04:39:44.685Z,26.50
2018-11-21T04:40:44.638Z,26.30
2018-11-21T04:41:44.622Z,26.80
2018-11-21T04:42:44.550Z,26.40
2018-11-21T04:43:44.507Z,26.80
2018-11-21T04:44:44.472Z,26.90
2018-11-21T04:45:44.414Z,26.60
2018-11-21T04:46:44.389Z,27.00
2018-11-21T04:47:44.310Z,26.60
2018-11-21T04:48:44.287Z,26.50
2018-11-21T04:49:44.237Z,27.00
2018-11-21T04:50:44.177Z,26.60
2018-11-21T04:51:44.125Z,27.70
2018-11-21T04:52:44.080Z,26.70
2018-11-21T04:53:44.055Z,27.30
2018-11-21T04:54:43.987Z,28.10
2018-11-21T04:55:43.948Z,28.30
2018-11-21T04:56:43.898Z,27.50
2018-11-21T04:57:43.864Z,26.90
2018-11-21T04:58:43.833Z,27.20
2018-11-21T04:59:43.750Z,27.20
2018-11-21T05:00:52.940Z,27.90
2018-11-21T05:01:43.665Z,28.20
2018-11-21T05:02:43.629Z,28.20
2018-11-21T05:03:43.595Z,26.80
2018-11-21T05:04:43.527Z,27.60
2018-11-21T05:05:43.477Z,27.80
2018-11-21T05:06:43.430Z,26.40
2018-11-21T05:07:43.388Z,27.60
2018-11-21T05:08:43.366Z,28.30
2018-11-21T05:09:43.282Z,28.10
2018-11-21T05:10:43.235Z,27.40
2018-11-21T05:11:43.190Z,26.10
2018-11-21T05:12:43.138Z,28.10
2018-11-21T05:13:43.111Z,29.40
2018-11-21T05:14:43.076Z,29.20
2018-11-21T05:15:43.009Z,30.20
2018-11-21T05:16:42.963Z,29.40
2018-11-21T05:17:42.902Z,29.60
2018-11-21T05:18:42.869Z,28.50
2018-11-21T05:19:42.847Z,28.90
2018-11-21T05:20:42.775Z,28.20
2018-11-21T05:21:42.721Z,29.60
2018-11-21T05:22:42.677Z,28.40
2018-11-21T05:23:42.625Z,27.60
2018-11-21T05:24:42.607Z,26.70
2018-11-21T05:25:42.535Z,26.40
2018-11-21T05:26:42.493Z,26.20
2018-11-21T05:27:42.452Z,27.90
2018-11-21T05:28:42.404Z,28.40
2018-11-21T05:29:42.373Z,28.30
2018-11-21T05:30:42.297Z,29.20
2018-11-21T05:31:42.250Z,29.00
2018-11-21T05:32:42.208Z,28.80
2018-11-21T05:33:42.164Z,28.60
2018-11-21T05:34:42.139Z,28.30
2018-11-21T05:35:42.061Z,29.50
2018-11-21T05:36:42.041Z,29.60
2018-11-21T05:37:41.977Z,29.90
2018-11-21T05:38:41.923Z,30.10
2018-11-21T05:39:41.882Z,30.60
2018-11-21T05:40:41.840Z,29.80
2018-11-21T05:41:41.803Z,30.10
2018-11-21T05:42:41.763Z,29.20
2018-11-21T05:43:41.690Z,29.10
2018-11-21T05:44:41.638Z,31.50
2018-11-21T05:45:41.634Z,30.90
2018-11-21T05:46:41.588Z,31.00
2018-11-21T05:47:41.507Z,30.00
2018-11-21T05:48:41.461Z,30.20
2018-11-21T05:49:41.409Z,30.80
2018-11-21T05:50:41.387Z,30.90
2018-11-21T05:51:41.319Z,31.30
2018-11-21T05:52:41.296Z,33.50
2018-11-21T05:53:41.219Z,34.30
2018-11-21T05:54:41.168Z,32.40
2018-11-21T05:55:41.132Z,32.90
2018-11-21T05:56:41.100Z,33.70
2018-11-21T05:57:41.038Z,35.20
2018-11-21T05:58:40.987Z,34.30
2018-11-21T05:59:40.947Z,34.00
2018-11-21T06:00:40.897Z,35.00
2018-11-21T06:01:40.839Z,33.70
2018-11-21T06:02:40.815Z,33.50
2018-11-21T06:03:40.774Z,33.40
2018-11-21T06:04:40.699Z,33.00
2018-11-21T06:05:40.658Z,32.60
2018-11-21T06:06:40.638Z,33.40
2018-11-21T06:07:50.964Z,32.90
2018-11-21T06:08:40.515Z,32.70
2018-11-21T06:09:40.468Z,33.80
2018-11-21T06:10:40.422Z,34.40
2018-11-21T06:11:40.366Z,32.70
2018-11-21T06:12:40.348Z,32.30
2018-11-21T06:13:40.268Z,32.20
2018-11-21T06:14:40.224Z,33.10
2018-11-21T06:15:40.185Z,31.40
2018-11-21T06:16:40.138Z,31.50
2018-11-21T06:17:40.160Z,30.70
2018-11-21T06:18:40.044Z,31.90
2018-11-21T06:19:39.988Z,32.70
2018-11-21T06:20:39.944Z,34.20
2018-11-21T06:21:39.902Z,34.00
2018-11-21T06:22:39.878Z,32.10
2018-11-21T06:23:39.799Z,32.30
2018-11-21T06:24:39.754Z,32.30
2018-11-21T06:25:39.705Z,34.20
2018-11-21T06:26:39.656Z,33.30
2018-11-21T06:27:39.644Z,33.30
2018-11-21T06:28:39.594Z,32.70
2018-11-21T06:29:39.521Z,32.40
2018-11-21T06:30:39.477Z,31.60
2018-11-21T06:31:39.421Z,31.00
2018-11-21T06:32:39.372Z,30.30
2018-11-21T06:33:39.353Z,31.50
2018-11-21T06:34:39.281Z,32.40
2018-11-21T06:35:39.241Z,31.80
2018-11-21T06:36:39.188Z,31.10
2018-11-21T06:37:39.137Z,31.00
2018-11-21T06:38:39.112Z,32.50
2018-11-21T06:39:39.048Z,32.90
2018-11-21T06:40:39.003Z,33.00
2018-11-21T06:41:38.954Z,32.50
2018-11-21T06:42:38.911Z,34.50
2018-11-21T06:43:38.876Z,33.20
2018-11-21T06:44:38.805Z,32.30
2018-11-21T06:45:38.760Z,33.00
2018-11-21T06:46:38.713Z,32.50
2018-11-21T06:47:38.673Z,32.30
2018-11-21T06:48:38.649Z,32.20
2018-11-21T06:49:38.596Z,32.70
2018-11-21T06:50:38.529Z,35.30
2018-11-21T06:51:38.477Z,33.00
2018-11-21T06:52:38.427Z,32.60
2018-11-21T06:53:38.386Z,31.90
2018-11-21T06:54:38.365Z,31.10
2018-11-21T06:55:38.290Z,31.30
2018-11-21T06:56:38.243Z,31.60
2018-11-21T06:57:38.193Z,32.50
2018-11-21T06:58:38.142Z,31.60
2018-11-21T06:59:38.130Z,30.60
2018-11-21T07:00:38.057Z,31.00
2018-11-21T07:01:38.011Z,30.30
2018-11-21T07:02:37.963Z,31.40
2018-11-21T07:03:37.906Z,35.60
2018-11-21T07:04:37.883Z,39.20
2018-11-21T07:05:37.812Z,34.80
2018-11-21T07:06:37.767Z,27.30
2018-11-21T07:07:37.727Z,27.30
2018-11-21T07:08:37.676Z,25.60
2018-11-21T07:09:37.650Z,24.60
2018-11-21T07:10:37.577Z,23.70
2018-11-21T07:11:37.537Z,23.70
2018-11-21T07:12:37.489Z,22.30
2018-11-21T07:13:37.445Z,20.30
2018-11-21T07:14:37.396Z,21.50
2018-11-21T07:15:37.363Z,21.80
2018-11-21T07:16:37.296Z,20.90
2018-11-21T07:17:37.247Z,21.10
2018-11-21T07:18:37.210Z,21.70
2018-11-21T07:19:37.160Z,22.70
2018-11-21T07:20:37.142Z,23.20
2018-11-21T07:21:37.067Z,23.20
2018-11-21T07:22:37.021Z,22.50
2018-11-21T07:23:36.968Z,22.30
2018-11-21T07:24:36.922Z,22.30
2018-11-21T07:25:36.903Z,21.40
2018-11-21T07:26:36.832Z,21.30
2018-11-21T07:27:36.778Z,20.10
2018-11-21T07:28:36.731Z,20.90
2018-11-21T07:29:36.688Z,22.40
2018-11-21T07:30:36.664Z,21.50
2018-11-21T07:31:36.600Z,22.30
2018-11-21T07:32:36.555Z,21.10
2018-11-21T07:33:36.505Z,21.20
2018-11-21T07:34:36.458Z,22.00
2018-11-21T07:35:36.405Z,21.80
2018-11-21T07:36:36.386Z,22.30
2018-11-21T07:37:36.337Z,21.40
2018-11-21T07:38:36.267Z,23.20
2018-11-21T07:39:36.230Z,23.80
2018-11-21T07:40:36.186Z,22.30
2018-11-21T07:41:36.152Z,25.30
2018-11-21T07:42:36.079Z,23.30
2018-11-21T07:43:36.045Z,25.60
2018-11-21T07:44:35.994Z,25.30
2018-11-21T07:45:35.949Z,22.50
2018-11-21T07:46:35.929Z,24.60
2018-11-21T07:47:35.851Z,24.50
2018-11-21T07:48:35.804Z,23.00
2018-11-21T07:49:35.757Z,23.10
2018-11-21T07:50:35.714Z,24.20
2018-11-21T07:51:35.670Z,24.20
2018-11-21T07:52:35.653Z,24.60
2018-11-21T07:53:35.580Z,23.90
2018-11-21T07:54:35.535Z,24.50
2018-11-21T07:55:35.479Z,23.50
2018-11-21T07:56:35.434Z,23.40
2018-11-21T07:57:35.393Z,23.60
2018-11-21T07:58:35.380Z,23.50
2018-11-21T07:59:35.299Z,23.30
2018-11-21T08:00:35.254Z,25.50
2018-11-21T08:01:35.226Z,26.80
2018-11-21T08:02:35.160Z,28.80
2018-11-21T08:03:35.120Z,25.80
2018-11-21T08:04:35.098Z,27.90
2018-11-21T08:05:35.030Z,27.90
2018-11-21T08:06:34.983Z,26.10
2018-11-21T08:07:34.958Z,27.90
2018-11-21T08:08:34.886Z,30.60
2018-11-21T08:09:34.868Z,27.50
2018-11-21T08:10:34.800Z,24.80
2018-11-21T08:11:34.757Z,26.90
2018-11-21T08:12:34.717Z,26.50
2018-11-21T08:13:34.657Z,26.70
2018-11-21T08:14:34.643Z,27.70
2018-11-21T08:15:34.573Z,28.20
2018-11-21T08:16:34.530Z,26.30
2018-11-21T08:17:34.483Z,25.50
2018-11-21T08:18:43.507Z,23.50
2018-11-21T08:19:34.384Z,23.30
2018-11-21T08:20:34.368Z,22.80
2018-11-21T08:21:34.300Z,21.50
2018-11-21T08:22:34.256Z,21.00
2018-11-21T08:23:34.212Z,21.00
2018-11-21T08:24:34.170Z,21.00
2018-11-21T08:25:34.115Z,21.50
2018-11-21T08:26:34.095Z,21.60
2018-11-21T08:27:34.043Z,21.50
2018-11-21T08:28:33.991Z,21.30
2018-11-21T08:29:33.956Z,21.20
2018-11-21T08:30:33.897Z,20.20
2018-11-21T08:31:33.885Z,21.70
2018-11-21T08:32:33.817Z,21.40
2018-11-21T08:33:34.290Z,21.00
2018-11-21T08:34:33.734Z,20.60
2018-11-21T08:35:33.691Z,21.80
2018-11-21T08:36:33.654Z,21.90
2018-11-21T08:37:33.625Z,21.70
2018-11-21T08:38:33.561Z,22.00
2018-11-21T08:39:33.538Z,23.60
2018-11-21T08:40:33.473Z,22.60
2018-11-21T08:41:33.441Z,23.00
2018-11-21T08:42:33.392Z,23.60
2018-11-21T08:43:33.348Z,23.00
2018-11-21T08:44:33.325Z,23.30
2018-11-21T08:45:33.266Z,22.90
2018-11-21T08:46:33.221Z,22.40
2018-11-21T08:47:33.180Z,22.30
2018-11-21T08:48:33.138Z,22.40
2018-11-21T08:49:33.114Z,22.00
2018-11-21T08:50:33.045Z,21.70
2018-11-21T08:51:33.005Z,21.70
2018-11-21T08:52:32.996Z,22.30
2018-11-21T08:53:32.925Z,21.10
2018-11-21T08:54:32.886Z,21.00
2018-11-21T08:55:32.870Z,21.10
2018-11-21T08:56:32.799Z,20.40
2018-11-21T08:57:32.750Z,20.40
2018-11-21T08:58:32.709Z,20.10
2018-11-21T08:59:32.674Z,20.10
2018-11-21T09:00:32.661Z,19.80
2018-11-21T09:01:32.579Z,19.90
2018-11-21T09:02:32.538Z,19.80
2018-11-21T09:03:32.510Z,19.70
2018-11-21T09:04:32.464Z,20.30
2018-11-21T09:05:32.424Z,19.60
2018-11-21T09:06:32.408Z,19.20
2018-11-21T09:07:32.349Z,19.70
2018-11-21T09:08:32.318Z,19.90
2018-11-21T09:09:32.266Z,19.60
2018-11-21T09:10:53.241Z,20.00
2018-11-21T09:11:32.179Z,19.90
2018-11-21T09:12:32.146Z,19.80
2018-11-21T09:13:32.109Z,20.20
2018-11-21T09:14:32.058Z,20.30
2018-11-21T09:15:32.021Z,20.10
2018-11-21T09:16:32.010Z,21.00
2018-11-21T09:17:31.950Z,21.10
2018-11-21T09:18:31.910Z,21.90
2018-11-21T09:19:31.870Z,22.30
2018-11-21T09:20:31.825Z,21.70
2018-11-21T09:21:31.785Z,21.90
2018-11-21T09:22:31.762Z,22.80
2018-11-21T09:23:31.704Z,24.20
2018-11-21T09:24:31.667Z,23.10
2018-11-21T09:25:31.628Z,24.20
2018-11-21T09:26:31.605Z,24.90
2018-11-21T09:27:31.565Z,24.40
2018-11-21T09:28:31.497Z,24.50
2018-11-21T09:29:31.454Z,24.40
2018-11-21T09:30:31.417Z,23.90
2018-11-21T09:31:31.377Z,23.70
2018-11-21T09:32:31.350Z,24.00
2018-11-21T09:33:31.291Z,22.80
2018-11-21T09:34:31.245Z,23.20
2018-11-21T09:35:31.204Z,23.30
2018-11-21T09:36:31.167Z,24.10
2018-11-21T09:37:32.213Z,23.10
2018-11-21T09:38:31.090Z,22.80
2018-11-21T09:39:31.040Z,23.30
2018-11-21T09:40:31.011Z,22.70
2018-11-21T09:41:30.953Z,22.00
2018-11-21T09:42:30.924Z,21.90
2018-11-21T09:43:30.898Z,22.60
2018-11-21T09:44:30.842Z,22.10
2018-11-21T09:45:30.801Z,21.90
2018-11-21T09:46:30.749Z,22.60
2018-11-21T09:47:30.711Z,21.70
2018-11-21T09:48:30.700Z,22.80
2018-11-21T09:49:30.638Z,24.00
2018-11-21T09:50:30.596Z,28.60
2018-11-21T09:51:30.557Z,24.10
2018-11-21T09:52:30.509Z,24.80
2018-11-21T09:53:30.490Z,23.80
2018-11-21T09:54:30.428Z,23.70
2018-11-21T09:55:30.388Z,22.90
2018-11-21T09:56:30.380Z,21.80
2018-11-21T09:57:30.314Z,22.30
2018-11-21T09:58:30.275Z,22.10
2018-11-21T09:59:30.240Z,22.00
2018-11-21T10:00:30.188Z,21.60
2018-11-21T10:01:30.172Z,22.00
2018-11-21T10:02:30.116Z,22.10
2018-11-21T10:03:30.099Z,22.30
2018-11-21T10:04:30.030Z,22.40
2018-11-21T10:05:29.984Z,21.80
2018-11-21T10:06:29.944Z,21.90
2018-11-21T10:07:29.931Z,22.20
2018-11-21T10:08:29.869Z,22.00
2018-11-21T10:09:29.830Z,22.30
2018-11-21T10:10:29.785Z,21.60
2018-11-21T10:11:29.749Z,21.70
2018-11-21T10:12:29.726Z,21.20
2018-11-21T10:13:29.666Z,22.20
2018-11-21T10:14:29.613Z,21.90
2018-11-21T10:15:29.575Z,21.40
2018-11-21T10:16:29.541Z,21.60
2018-11-21T10:17:29.519Z,21.70
2018-11-21T10:18:29.447Z,20.50
2018-11-21T10:19:29.433Z,20.50
2018-11-21T10:20:29.379Z,20.10
2018-11-21T10:21:29.331Z,20.20
2018-11-21T10:22:29.296Z,20.10
2018-11-21T10:23:29.250Z,20.50
2018-11-21T10:24:29.224Z,20.40
2018-11-21T10:25:29.161Z,21.00
2018-11-21T10:26:29.119Z,20.70
2018-11-21T10:27:29.099Z,21.40
2018-11-21T10:28:29.045Z,21.80
2018-11-21T10:29:29.005Z,21.70
2018-11-21T10:30:28.987Z,21.60
2018-11-21T10:31:28.927Z,22.00
2018-11-21T10:32:28.882Z,21.30
2018-11-21T10:33:28.830Z,21.80
2018-11-21T10:34:28.821Z,22.20
2018-11-21T10:35:28.780Z,22.80
2018-11-21T10:36:28.707Z,21.40
2018-11-21T10:37:28.664Z,21.10
2018-11-21T10:38:28.626Z,21.90
2018-11-21T10:39:28.583Z,21.70
2018-11-21T10:40:28.577Z,21.70
2018-11-21T10:41:28.510Z,21.60
2018-11-21T10:42:28.464Z,22.70
2018-11-21T10:43:28.551Z,21.20
2018-11-21T10:44:28.373Z,21.60
2018-11-21T10:45:28.331Z,22.50
2018-11-21T10:46:28.314Z,22.00
2018-11-21T10:47:28.248Z,21.90
2018-11-21T10:48:28.211Z,22.00
2018-11-21T10:49:28.170Z,22.20
2018-11-21T10:50:28.137Z,21.50
2018-11-21T10:51:28.104Z,22.10
2018-11-21T10:52:31.544Z,21.70
2018-11-21T10:53:28.005Z,21.30
2018-11-21T10:54:27.962Z,21.00
2018-11-21T10:55:27.919Z,21.30
2018-11-21T10:56:27.891Z,20.30
2018-11-21T10:57:27.832Z,21.00
2018-11-21T10:58:27.787Z,20.20
2018-11-21T10:59:27.746Z,19.30
2018-11-21T11:00:27.714Z,19.80
2018-11-21T11:01:27.700Z,19.70
2018-11-21T11:02:27.629Z,20.00
2018-11-21T11:03:27.590Z,19.60
2018-11-21T11:04:27.542Z,19.70
2018-11-21T11:05:27.499Z,19.10
2018-11-21T11:06:27.492Z,19.30
2018-11-21T11:07:27.426Z,18.80
2018-11-21T11:08:27.379Z,18.90
2018-11-21T11:09:27.338Z,18.50
2018-11-21T11:10:27.298Z,18.30
2018-11-21T11:11:27.255Z,18.70
2018-11-21T11:12:27.251Z,18.80
2018-11-21T11:13:27.189Z,19.30
2018-11-21T11:14:27.149Z,18.80
2018-11-21T11:15:27.108Z,19.10
2018-11-21T11:16:27.070Z,18.70
2018-11-21T11:17:27.052Z,18.40
2018-11-21T11:18:26.988Z,18.80
2018-11-21T11:19:26.946Z,18.90
2018-11-21T11:20:26.910Z,18.90
2018-11-21T11:21:26.893Z,18.50
2018-11-21T11:22:26.845Z,18.30
2018-11-21T11:23:26.819Z,18.70
2018-11-21T11:24:26.758Z,19.20
2018-11-21T11:25:26.716Z,18.50
2018-11-21T11:26:26.682Z,19.70
2018-11-21T11:27:26.641Z,20.30
2018-11-21T11:28:26.596Z,19.10
2018-11-21T11:29:26.580Z,19.10
2018-11-21T11:30:26.513Z,19.20
2018-11-21T11:31:26.480Z,19.40
2018-11-21T11:32:26.445Z,19.10
2018-11-21T11:33:26.406Z,18.90
2018-11-21T11:34:26.394Z,18.90
2018-11-21T11:35:26.324Z,19.30
2018-11-21T11:36:26.277Z,20.20
2018-11-21T11:37:26.248Z,19.10
2018-11-21T11:38:26.207Z,19.10
2018-11-21T11:39:26.193Z,18.40
2018-11-21T11:40:26.143Z,20.20
2018-11-21T11:41:26.079Z,19.80
2018-11-21T11:42:26.040Z,20.10
2018-11-21T11:43:26.001Z,19.60
2018-11-21T11:44:25.969Z,19.90
2018-11-21T11:45:25.960Z,19.60
2018-11-21T11:46:25.887Z,19.30
2018-11-21T11:47:25.848Z,20.80
2018-11-21T11:48:25.806Z,20.10
2018-11-21T11:49:25.757Z,19.80
2018-11-21T11:50:25.720Z,21.00
2018-11-21T11:51:25.702Z,20.90
2018-11-21T11:52:25.645Z,19.70
2018-11-21T11:53:25.603Z,19.50
2018-11-21T11:54:25.561Z,19.60
2018-11-21T11:55:25.516Z,19.60
2018-11-21T11:56:25.504Z,19.50
2018-11-21T11:57:25.442Z,19.30
2018-11-21T11:58:25.403Z,18.80
2018-11-21T11:59:25.363Z,19.20
2018-11-21T12:00:25.313Z,19.10
2018-11-21T12:01:25.296Z,18.70
2018-11-21T12:02:25.256Z,19.30
2018-11-21T12:03:25.191Z,19.40
2018-11-21T12:04:25.159Z,19.60
2018-11-21T12:05:25.118Z,18.70
2018-11-21T12:06:25.082Z,19.50
2018-11-21T12:07:25.072Z,19.40
2018-11-21T12:08:24.992Z,20.20
2018-11-21T12:09:24.954Z,20.10
2018-11-21T12:10:24.921Z,19.00
2018-11-21T12:11:24.884Z,19.40
2018-11-21T12:12:24.838Z,19.20
2018-11-21T12:13:24.818Z,19.80
2018-11-21T12:14:24.752Z,19.70
2018-11-21T12:15:24.713Z,20.10
2018-11-21T12:16:24.679Z,19.90
2018-11-21T12:17:24.639Z,19.80
2018-11-21T12:18:24.628Z,20.00
2018-11-21T12:19:24.559Z,19.20
2018-11-21T12:20:24.513Z,19.80
2018-11-21T12:21:24.478Z,19.70
2018-11-21T12:22:24.441Z,19.80
2018-11-21T12:23:24.398Z,21.20
2018-11-21T12:24:24.390Z,20.30
2018-11-21T12:25:24.324Z,20.40
2018-11-21T12:26:24.278Z,20.20
2018-11-21T12:27:24.237Z,20.40
2018-11-21T12:28:24.211Z,21.00
2018-11-21T12:29:24.168Z,20.00
2018-11-21T12:30:24.374Z,20.40
2018-11-21T12:31:24.091Z,20.10
2018-11-21T12:32:24.043Z,20.30
2018-11-21T12:33:24.003Z,19.90
2018-11-21T12:34:23.963Z,19.40
2018-11-21T12:35:23.925Z,20.70
2018-11-21T12:36:23.914Z,20.30
2018-11-21T12:37:23.849Z,20.30
2018-11-21T12:38:23.808Z,19.20
2018-11-21T12:39:23.769Z,19.40
2018-11-21T12:40:23.722Z,19.90
2018-11-21T12:41:23.702Z,20.50
2018-11-21T12:42:23.649Z,20.30
2018-11-21T12:43:23.610Z,20.10
2018-11-21T12:44:23.559Z,20.10
2018-11-21T12:45:23.520Z,19.80
2018-11-21T12:46:23.503Z,19.90
2018-11-21T12:47:23.437Z,20.00
2018-11-21T12:48:23.406Z,20.80
2018-11-21T12:49:23.362Z,20.70
2018-11-21T12:50:23.319Z,20.30
2018-11-21T12:51:23.313Z,19.90
2018-11-21T12:52:23.232Z,20.10